createdAt,value
2022-10-15T00:01:37.867Z,67.69
2022-10-15T00:04:05.745Z,68.11
2022-10-15T00:06:33.902Z,68.69
2022-10-15T00:09:01.802Z,69.18
2022-10-15T00:11:29.974Z,69.36
2022-10-15T00:14:00.200Z,69.71
2022-10-15T00:16:29.155Z,69.99
2022-10-15T00:18:58.384Z,70.42
2022-10-15T00:21:26.964Z,71.20
2022-10-15T00:23:55.348Z,71.95
2022-10-15T00:26:27.000Z,72.27
2022-10-15T00:28:59.395Z,72.41
2022-10-15T00:31:31.615Z,72.61
2022-10-15T00:34:01.574Z,72.89
2022-10-15T00:36:35.991Z,73.18
2022-10-15T00:39:05.965Z,72.75
2022-10-15T00:41:42.371Z,72.68
2022-10-15T00:44:22.319Z,73.12
2022-10-15T00:47:09.867Z,73.61
2022-10-15T00:49:42.015Z,73.95
2022-10-15T00:52:13.899Z,74.25
2022-10-15T00:54:45.897Z,74.42
2022-10-15T00:57:14.122Z,74.67
2022-10-15T00:59:46.249Z,74.85
2022-10-15T01:02:14.059Z,75.02
2022-10-15T01:04:42.313Z,75.12
2022-10-15T01:07:10.106Z,75.31
2022-10-15T01:09:38.774Z,75.26
2022-10-15T01:12:12.185Z,75.43
2022-10-15T01:15:01.176Z,75.40
2022-10-15T01:17:45.834Z,75.51
2022-10-15T01:20:22.646Z,75.98
2022-10-15T01:23:42.114Z,76.13
2022-10-15T01:26:27.912Z,75.85
2022-10-15T01:29:16.716Z,75.97
2022-10-15T01:31:58.316Z,76.23
2022-10-15T01:35:07.506Z,76.47
2022-10-15T01:38:08.640Z,76.54
2022-10-15T01:40:45.784Z,76.78
2022-10-15T01:43:20.100Z,77.02
2022-10-15T01:46:04.369Z,77.16
2022-10-15T01:48:34.450Z,77.43
2022-10-15T01:51:05.001Z,77.60
2022-10-15T01:53:34.454Z,77.60
2022-10-15T01:56:07.834Z,77.67
2022-10-15T01:58:40.442Z,77.62
2022-10-15T02:01:08.619Z,77.47
2022-10-15T02:03:48.504Z,77.32
2022-10-15T02:06:34.875Z,77.20
2022-10-15T02:09:27.559Z,77.13
2022-10-15T02:12:12.472Z,77.08
2022-10-15T02:15:11.091Z,77.13
2022-10-15T02:18:05.636Z,77.12
2022-10-15T02:20:50.820Z,77.12
2022-10-15T02:23:27.900Z,77.09
2022-10-15T02:25:56.345Z,77.10
2022-10-15T02:28:26.119Z,77.09
2022-10-15T02:30:54.586Z,77.06
2022-10-15T02:33:23.407Z,77.07
2022-10-15T02:35:52.302Z,77.04
2022-10-15T02:38:23.318Z,76.80
2022-10-15T02:40:53.323Z,76.53
2022-10-15T02:43:24.962Z,76.54
2022-10-15T02:45:52.851Z,76.64
2022-10-15T02:48:20.903Z,76.72
2022-10-15T02:50:48.762Z,76.72
2022-10-15T02:53:16.730Z,76.70
2022-10-15T02:55:46.080Z,76.67
2022-10-15T02:58:13.872Z,76.59
2022-10-15T03:00:42.048Z,76.59
2022-10-15T03:03:10.876Z,76.51
2022-10-15T03:05:38.937Z,76.45
2022-10-15T03:08:06.772Z,76.31
2022-10-15T03:10:34.522Z,76.17
2022-10-15T03:13:04.631Z,76.09
2022-10-15T03:15:32.655Z,76.05
2022-10-15T03:18:00.518Z,75.93
2022-10-15T03:20:28.229Z,75.79
2022-10-15T03:22:56.148Z,75.65
2022-10-15T03:25:24.016Z,75.53
2022-10-15T03:27:54.608Z,75.54
2022-10-15T03:30:22.365Z,75.54
2022-10-15T03:32:51.564Z,75.48
2022-10-15T03:35:19.393Z,75.48
2022-10-15T03:37:47.180Z,75.44
2022-10-15T03:40:14.937Z,75.40
2022-10-15T03:42:42.746Z,75.41
2022-10-15T03:45:10.857Z,75.34
2022-10-15T03:47:38.690Z,75.22
2022-10-15T03:50:06.641Z,75.19
2022-10-15T03:52:34.330Z,75.17
2022-10-15T03:55:02.109Z,75.19
2022-10-15T03:57:29.823Z,75.08
2022-10-15T03:59:57.687Z,74.92
2022-10-15T04:02:26.300Z,74.88
2022-10-15T04:04:54.867Z,74.72
2022-10-15T04:07:22.711Z,74.64
2022-10-15T04:09:52.072Z,74.63
2022-10-15T04:12:19.959Z,74.60
2022-10-15T04:14:47.853Z,74.58
2022-10-15T04:17:17.887Z,74.59
2022-10-15T04:19:45.836Z,74.53
2022-10-15T04:22:13.565Z,74.31
2022-10-15T04:24:41.437Z,74.26
2022-10-15T04:27:09.285Z,74.22
2022-10-15T04:29:37.066Z,74.22
2022-10-15T04:32:06.842Z,74.24
2022-10-15T04:34:34.610Z,74.25
2022-10-15T04:37:02.452Z,74.24
2022-10-15T04:39:31.705Z,74.24
2022-10-15T04:41:59.579Z,74.21
2022-10-15T04:44:27.614Z,74.15
2022-10-15T04:46:55.507Z,74.05
2022-10-15T04:49:23.312Z,73.99
2022-10-15T04:51:54.209Z,73.91
2022-10-15T04:54:22.104Z,73.76
2022-10-15T04:56:49.912Z,73.58
2022-10-15T04:59:18.066Z,73.59
2022-10-15T05:01:45.883Z,73.52
2022-10-15T05:04:13.849Z,73.40
2022-10-15T05:06:41.754Z,73.32
2022-10-15T05:09:09.529Z,73.16
2022-10-15T05:11:38.286Z,73.30
2022-10-15T05:14:06.750Z,73.48
2022-10-15T05:16:34.558Z,73.13
2022-10-15T05:19:05.926Z,73.03
2022-10-15T05:21:35.319Z,72.94
2022-10-15T05:24:06.424Z,72.57
2022-10-15T05:26:34.175Z,72.47
2022-10-15T05:29:02.368Z,72.47
2022-10-15T05:31:32.937Z,72.44
2022-10-15T05:34:07.609Z,72.38
2022-10-15T05:36:37.087Z,72.43
2022-10-15T05:39:10.391Z,72.43
2022-10-15T05:41:38.412Z,72.27
2022-10-15T05:44:06.377Z,72.24
2022-10-15T05:46:35.230Z,72.39
2022-10-15T05:49:03.743Z,72.49
2022-10-15T05:51:31.491Z,72.63
2022-10-15T05:53:59.763Z,72.72
2022-10-15T05:56:28.046Z,72.72
2022-10-15T05:58:56.248Z,72.71
2022-10-15T06:01:24.099Z,72.63
2022-10-15T06:03:51.935Z,72.67
2022-10-15T06:06:26.712Z,72.80
2022-10-15T06:08:55.435Z,72.78
2022-10-15T06:11:23.142Z,72.98
2022-10-15T06:13:54.005Z,73.11
2022-10-15T06:16:23.998Z,73.31
2022-10-15T06:18:53.710Z,73.32
2022-10-15T06:21:21.953Z,73.31
2022-10-15T06:23:49.877Z,73.44
2022-10-15T06:26:17.723Z,73.53
2022-10-15T06:28:45.535Z,73.60
2022-10-15T06:31:14.978Z,73.62
2022-10-15T06:34:09.507Z,73.62
2022-10-15T06:36:38.464Z,73.55
2022-10-15T06:39:14.265Z,73.47
2022-10-15T06:41:44.830Z,73.55
2022-10-15T06:44:12.959Z,73.49
2022-10-15T06:47:01.399Z,73.54
2022-10-15T06:49:29.242Z,73.52
2022-10-15T06:52:02.604Z,73.49
2022-10-15T06:54:31.608Z,73.35
2022-10-15T06:56:59.431Z,73.32
2022-10-15T06:59:38.588Z,73.21
2022-10-15T07:02:17.835Z,73.24
2022-10-15T07:04:47.451Z,73.42
2022-10-15T07:07:31.805Z,73.48
2022-10-15T07:10:02.457Z,73.54
2022-10-15T07:12:37.661Z,73.59
2022-10-15T07:15:12.611Z,73.68
2022-10-15T07:18:04.668Z,73.80
2022-10-15T07:20:32.827Z,73.90
2022-10-15T07:23:04.167Z,74.08
2022-10-15T07:25:37.923Z,74.33
2022-10-15T07:28:06.990Z,74.53
2022-10-15T07:30:36.218Z,74.77
2022-10-15T07:33:06.025Z,74.72
2022-10-15T07:35:40.852Z,74.69
2022-10-15T07:38:11.292Z,74.78
2022-10-15T07:40:43.284Z,74.78
2022-10-15T07:43:11.140Z,74.61
2022-10-15T07:45:41.630Z,74.75
2022-10-15T07:48:09.993Z,74.88
2022-10-15T07:50:40.465Z,74.88
2022-10-15T07:53:18.171Z,74.86
2022-10-15T07:55:49.409Z,74.48
2022-10-15T07:58:23.181Z,74.69
2022-10-15T08:00:51.470Z,74.66
2022-10-15T08:03:26.782Z,74.30
2022-10-15T08:06:02.716Z,74.10
2022-10-15T08:08:31.595Z,73.90
2022-10-15T08:11:05.370Z,73.78
2022-10-15T08:13:34.145Z,73.80
2022-10-15T08:16:02.584Z,73.52
2022-10-15T08:18:35.393Z,72.49
2022-10-15T08:21:09.634Z,72.52
2022-10-15T08:23:42.215Z,72.35
2022-10-15T08:26:17.384Z,72.13
2022-10-15T08:29:03.231Z,72.17
2022-10-15T08:31:37.890Z,72.05
2022-10-15T08:34:08.492Z,71.55
2022-10-15T08:36:42.051Z,71.39
2022-10-15T08:39:26.371Z,71.51
2022-10-15T08:42:04.631Z,71.42
2022-10-15T08:44:44.511Z,71.45
2022-10-15T08:47:45.734Z,70.81
2022-10-15T09:10:52.091Z,72.04
2022-10-15T09:13:31.069Z,72.10
2022-10-15T09:16:30.582Z,72.23
2022-10-15T09:19:03.594Z,71.83
2022-10-15T09:21:31.895Z,71.19
2022-10-15T09:24:03.306Z,70.54
2022-10-15T09:27:05.221Z,70.48
2022-10-15T09:30:11.467Z,70.25
2022-10-15T09:33:04.203Z,69.95
2022-10-15T09:36:09.884Z,69.31
2022-10-15T09:39:12.974Z,69.23
2022-10-15T09:41:56.597Z,68.47
2022-10-15T09:44:40.745Z,68.59
2022-10-15T09:47:37.660Z,67.79
2022-10-15T09:50:09.809Z,68.05
2022-10-15T09:53:01.917Z,67.84
2022-10-15T09:56:04.087Z,67.40
2022-10-15T09:59:05.812Z,67.46
2022-10-15T10:01:40.287Z,67.51
2022-10-15T10:04:21.435Z,67.20
2022-10-15T10:06:58.319Z,66.51
2022-10-15T10:09:34.999Z,66.95
2022-10-15T10:12:07.755Z,66.52
2022-10-15T10:14:55.287Z,66.57
2022-10-15T10:18:06.120Z,66.05
2022-10-15T10:20:33.872Z,66.18
2022-10-15T10:23:22.430Z,66.51
2022-10-15T10:25:58.160Z,66.76
2022-10-15T10:29:04.935Z,67.07
2022-10-15T10:31:42.185Z,66.94
2022-10-15T10:34:15.877Z,67.13
2022-10-15T10:36:44.179Z,67.45
2022-10-15T10:39:18.815Z,67.55
2022-10-15T10:41:56.156Z,67.47
2022-10-15T10:44:46.028Z,67.60
2022-10-15T10:47:25.204Z,67.82
2022-10-15T10:49:57.506Z,67.58
2022-10-15T10:52:36.566Z,67.81
2022-10-15T10:55:12.296Z,67.96
2022-10-15T10:57:48.997Z,68.06
2022-10-15T11:00:25.867Z,68.22
2022-10-15T11:02:52.705Z,68.35
2022-10-15T11:05:26.362Z,68.48
2022-10-15T11:08:22.539Z,68.79
2022-10-15T11:11:08.566Z,68.93
2022-10-15T11:13:55.264Z,69.10
2022-10-15T11:17:11.674Z,69.19
2022-10-15T11:20:12.187Z,69.50
2022-10-15T11:22:52.135Z,69.49
2022-10-15T11:25:53.229Z,69.93
2022-10-15T11:28:31.399Z,69.99
2022-10-15T11:31:25.194Z,69.94
2022-10-15T11:34:23.388Z,70.01
2022-10-15T11:37:26.418Z,69.51
2022-10-15T11:40:15.435Z,68.73
2022-10-15T11:42:57.410Z,68.13
2022-10-15T11:45:36.805Z,68.26
2022-10-15T11:48:25.479Z,68.43
2022-10-15T11:51:10.540Z,68.43
2022-10-15T11:53:53.197Z,68.66
2022-10-15T11:56:22.359Z,68.50
2022-10-15T11:58:55.192Z,68.51
2022-10-15T12:01:25.050Z,68.54
2022-10-15T12:04:12.693Z,68.67
2022-10-15T12:06:46.380Z,68.78
2022-10-15T12:09:20.555Z,69.06
2022-10-15T12:12:00.775Z,69.32
2022-10-15T12:14:58.975Z,69.57
2022-10-15T12:18:22.508Z,69.38
2022-10-15T12:20:49.361Z,69.09
2022-10-15T12:23:41.161Z,68.86
2022-10-15T12:26:30.621Z,68.59
2022-10-15T12:29:04.118Z,68.65
2022-10-15T12:31:50.942Z,68.44
2022-10-15T12:34:39.229Z,68.62
2022-10-15T12:37:18.878Z,68.39
2022-10-15T12:39:54.843Z,68.24
2022-10-15T12:42:33.855Z,68.09
2022-10-15T12:45:04.269Z,67.95
2022-10-15T12:47:53.907Z,67.89
2022-10-15T12:50:31.844Z,67.44
2022-10-15T12:53:18.952Z,67.24
2022-10-15T12:56:14.541Z,67.42
2022-10-15T12:58:54.958Z,67.51
2022-10-15T13:01:21.788Z,67.58
2022-10-15T13:03:48.486Z,66.97
2022-10-15T13:06:32.726Z,66.72
2022-10-15T13:09:11.476Z,66.09
2022-10-15T13:14:42.246Z,65.73
2022-10-15T13:17:18.611Z,65.90
2022-10-15T13:20:07.531Z,65.90
2022-10-15T13:22:37.166Z,66.19
2022-10-15T13:25:16.132Z,66.21
2022-10-15T13:27:44.835Z,66.16
2022-10-15T13:30:16.939Z,66.14
2022-10-15T13:32:52.887Z,65.99
2022-10-15T13:35:29.150Z,66.26
2022-10-15T13:37:59.967Z,66.52
2022-10-15T13:40:29.565Z,66.56
2022-10-15T13:43:13.409Z,66.60
2022-10-15T13:45:46.447Z,66.75
2022-10-15T13:48:23.364Z,66.94
2022-10-15T13:50:52.935Z,67.14
2022-10-15T13:53:32.214Z,67.33
2022-10-15T13:56:03.254Z,67.47
2022-10-15T13:58:37.233Z,67.61
2022-10-15T14:01:18.194Z,67.74
2022-10-15T14:03:56.474Z,67.84
2022-10-15T14:06:32.399Z,67.93
2022-10-15T14:09:19.908Z,68.14
2022-10-15T14:11:47.763Z,68.15
2022-10-15T14:14:43.424Z,68.14
2022-10-15T14:17:30.012Z,68.02
2022-10-15T14:20:33.645Z,68.09
2022-10-15T14:22:53.657Z,68.15
2022-10-15T14:25:25.765Z,68.18
2022-10-15T14:27:53.856Z,68.21
2022-10-15T14:30:30.463Z,68.28
2022-10-15T14:32:57.363Z,68.45
2022-10-15T14:35:37.497Z,68.42
2022-10-15T14:38:16.248Z,68.50
2022-10-15T14:41:04.938Z,68.55
2022-10-15T14:43:36.598Z,68.68
2022-10-15T14:46:05.898Z,68.82
2022-10-15T14:48:38.380Z,68.93
2022-10-15T14:51:22.268Z,69.05
2022-10-15T14:53:51.172Z,69.15
2022-10-15T14:56:29.941Z,69.29
2022-10-15T14:58:57.390Z,69.43
2022-10-15T15:01:24.517Z,69.60
2022-10-15T15:03:56.209Z,69.77
2022-10-15T15:06:22.683Z,69.95
2022-10-15T15:08:49.351Z,70.07
2022-10-15T15:11:22.525Z,70.18
2022-10-15T15:13:52.253Z,70.23
2022-10-15T15:16:18.939Z,70.35
2022-10-15T15:18:47.794Z,70.42
2022-10-15T15:21:20.898Z,70.46
2022-10-15T15:23:47.828Z,70.74
2022-10-15T15:26:14.404Z,70.96
2022-10-15T15:28:40.975Z,71.23
2022-10-15T15:31:13.077Z,71.55
2022-10-15T15:33:40.709Z,71.61
2022-10-15T15:36:20.972Z,71.72
2022-10-15T15:38:50.621Z,71.67
2022-10-15T15:41:21.680Z,71.70
2022-10-15T15:43:48.957Z,71.74
2022-10-15T15:46:16.365Z,71.83
2022-10-15T15:48:43.143Z,72.13
2022-10-15T15:51:23.902Z,72.54
2022-10-15T15:54:00.238Z,73.07
2022-10-15T15:56:28.910Z,73.64
2022-10-15T15:58:58.090Z,74.10
2022-10-15T16:01:25.521Z,74.26
2022-10-15T16:03:53.364Z,74.48
2022-10-15T16:06:20.093Z,74.72
2022-10-15T16:08:52.788Z,74.95
2022-10-15T16:11:19.328Z,75.11
2022-10-15T16:13:46.073Z,75.30
2022-10-15T16:16:13.398Z,75.36
2022-10-15T16:18:40.136Z,75.47
2022-10-15T16:21:07.184Z,75.55
2022-10-15T16:23:34.162Z,75.56
2022-10-15T16:26:03.837Z,75.65
2022-10-15T16:28:30.742Z,75.67
2022-10-15T16:31:29.554Z,75.62
2022-10-15T16:33:58.858Z,75.62
2022-10-15T16:36:26.641Z,75.65
2022-10-15T16:38:54.408Z,75.52
2022-10-15T16:41:22.387Z,75.46
2022-10-15T16:43:52.695Z,75.52
2022-10-15T16:46:21.553Z,75.57
2022-10-15T16:48:55.287Z,75.71
2022-10-15T16:51:24.267Z,75.82
2022-10-15T16:53:52.476Z,75.92
2022-10-15T16:56:27.008Z,75.98
2022-10-15T16:58:56.380Z,76.07
2022-10-15T17:01:27.858Z,76.16
2022-10-15T17:03:57.574Z,76.18
2022-10-15T17:06:29.253Z,76.25
2022-10-15T17:09:00.022Z,76.28
2022-10-15T17:11:31.514Z,76.30
2022-10-15T17:14:03.914Z,76.29
2022-10-15T17:16:44.694Z,76.29
2022-10-15T17:19:14.845Z,76.31
2022-10-15T17:21:44.878Z,76.29
2022-10-15T17:24:16.604Z,76.29
2022-10-15T17:26:45.923Z,76.30
2022-10-15T17:29:21.560Z,76.35
2022-10-15T17:31:53.388Z,76.38
2022-10-15T17:34:21.764Z,76.44
2022-10-15T17:36:49.714Z,76.57
2022-10-15T17:39:20.445Z,76.66
2022-10-15T17:41:50.888Z,76.77
2022-10-15T17:44:18.730Z,76.92
2022-10-15T17:46:46.559Z,76.99
2022-10-15T17:49:18.572Z,77.18
2022-10-15T17:51:47.197Z,77.41
2022-10-15T17:54:15.026Z,77.51
2022-10-15T17:56:43.370Z,77.57
2022-10-15T17:59:12.107Z,77.63
2022-10-15T18:01:59.947Z,77.73
2022-10-15T18:04:29.805Z,77.80
2022-10-15T18:06:57.953Z,77.92
2022-10-15T18:09:27.463Z,78.18
2022-10-15T18:11:56.990Z,78.21
2022-10-15T18:14:24.921Z,78.34
2022-10-15T18:16:53.396Z,78.52
2022-10-15T18:19:21.389Z,78.66
2022-10-15T18:21:49.742Z,78.77
2022-10-15T18:24:21.915Z,78.87
2022-10-15T18:26:51.330Z,78.97
2022-10-15T18:29:21.274Z,79.00
2022-10-15T18:31:53.445Z,79.07
2022-10-15T18:34:24.407Z,79.10
2022-10-15T18:36:52.181Z,79.15
2022-10-15T18:39:20.013Z,79.20
2022-10-15T18:41:47.886Z,79.23
2022-10-15T18:44:17.789Z,79.20
2022-10-15T18:46:45.767Z,79.14
2022-10-15T18:49:16.838Z,79.08
2022-10-15T18:51:46.738Z,79.04
2022-10-15T18:54:14.558Z,79.02
2022-10-15T18:56:42.289Z,79.01
2022-10-15T18:59:10.181Z,79.01
2022-10-15T19:01:44.164Z,78.99
2022-10-15T19:04:15.614Z,78.97
2022-10-15T19:06:46.718Z,78.90
2022-10-15T19:09:24.534Z,78.83
2022-10-15T19:11:55.231Z,78.80
2022-10-15T19:14:25.747Z,78.76
2022-10-15T19:16:54.292Z,78.64
2022-10-15T19:19:23.995Z,78.51
2022-10-15T19:21:53.429Z,78.43
2022-10-15T19:24:22.934Z,78.35
2022-10-15T19:26:52.297Z,78.22
2022-10-15T19:29:20.609Z,78.10
2022-10-15T19:31:51.233Z,78.07
2022-10-15T19:34:18.994Z,78.02
2022-10-15T19:36:50.927Z,77.96
2022-10-15T19:39:22.380Z,77.90
2022-10-15T19:41:53.359Z,77.83
2022-10-15T19:44:26.149Z,77.76
2022-10-15T19:46:57.392Z,77.69
2022-10-15T19:49:25.724Z,77.66
2022-10-15T19:51:53.533Z,77.63
2022-10-15T19:54:22.027Z,77.61
2022-10-15T19:56:49.988Z,77.58
2022-10-15T19:59:20.377Z,77.56
2022-10-15T20:01:48.260Z,77.56
2022-10-15T20:04:18.413Z,77.56
2022-10-15T20:06:46.143Z,77.55
2022-10-15T20:09:13.852Z,77.58
2022-10-15T20:11:42.214Z,77.61
2022-10-15T20:14:10.227Z,77.60
2022-10-15T20:16:38.094Z,77.62
2022-10-15T20:19:06.282Z,77.64
2022-10-15T20:21:33.998Z,77.67
2022-10-15T20:24:05.284Z,77.69
2022-10-15T20:26:33.444Z,77.71
2022-10-15T20:29:01.520Z,77.74
2022-10-15T20:31:33.087Z,77.72
2022-10-15T20:34:02.864Z,77.78
2022-10-15T20:36:30.855Z,77.88
2022-10-15T20:39:00.797Z,78.03
2022-10-15T20:41:28.655Z,78.12
2022-10-15T20:43:57.079Z,78.21
2022-10-15T20:46:34.625Z,78.26
2022-10-15T20:49:14.356Z,78.34
2022-10-15T20:51:43.121Z,78.38
2022-10-15T20:54:12.971Z,78.42
2022-10-15T20:56:41.417Z,78.45
2022-10-15T20:59:09.244Z,78.48
2022-10-15T21:01:37.242Z,78.50
2022-10-15T21:04:06.000Z,78.53
2022-10-15T21:06:33.739Z,78.53
2022-10-15T21:09:01.707Z,78.55
2022-10-15T21:11:29.764Z,78.56
2022-10-15T21:14:00.345Z,78.61
2022-10-15T21:16:28.647Z,78.67
2022-10-15T21:18:56.642Z,78.68
2022-10-15T21:21:24.554Z,78.68
2022-10-15T21:23:52.398Z,78.70
2022-10-15T21:26:20.872Z,78.67
2022-10-15T21:28:48.738Z,78.66
2022-10-15T21:31:17.685Z,78.69
2022-10-15T21:33:46.269Z,78.78
2022-10-15T21:36:26.480Z,78.95
2022-10-15T21:39:00.870Z,79.11
2022-10-15T21:41:34.211Z,79.20
2022-10-15T21:44:03.134Z,79.24
2022-10-15T21:46:31.723Z,79.29
2022-10-15T21:49:01.512Z,79.30
2022-10-15T21:51:33.297Z,79.26
2022-10-15T21:54:02.880Z,79.24
2022-10-15T21:56:31.755Z,79.27
2022-10-15T21:59:00.036Z,79.30
2022-10-15T22:01:33.609Z,79.37
2022-10-15T22:04:09.327Z,79.54
2022-10-15T22:06:40.228Z,79.68
2022-10-15T22:09:10.122Z,79.80
2022-10-15T22:11:41.103Z,79.88
2022-10-15T22:14:12.528Z,79.94
2022-10-15T22:16:41.390Z,79.93
2022-10-15T22:19:11.542Z,79.94
2022-10-15T22:21:39.393Z,79.93
2022-10-15T22:24:14.065Z,79.93
2022-10-15T22:26:49.382Z,79.90
2022-10-15T22:29:26.303Z,79.86
2022-10-15T22:31:55.247Z,79.84
2022-10-15T22:34:24.040Z,79.82
2022-10-15T22:36:53.021Z,79.78
2022-10-15T22:39:20.828Z,79.73
2022-10-15T22:41:48.979Z,79.70
2022-10-15T22:44:19.888Z,79.72
2022-10-15T22:46:49.648Z,79.70
2022-10-15T22:49:20.729Z,79.65
2022-10-15T22:51:49.903Z,79.58
2022-10-15T22:54:20.768Z,79.51
2022-10-15T22:56:49.873Z,79.49
2022-10-15T22:59:18.326Z,79.43
2022-10-15T23:01:46.156Z,79.40
2022-10-15T23:04:15.557Z,79.41
2022-10-15T23:06:43.660Z,79.46
2022-10-15T23:09:17.677Z,79.44
2022-10-15T23:11:46.709Z,79.42
2022-10-15T23:14:16.996Z,79.40
2022-10-15T23:16:47.563Z,79.47
2022-10-15T23:19:21.755Z,79.51
2022-10-15T23:21:53.164Z,79.50
2022-10-15T23:24:27.255Z,79.47
2022-10-15T23:26:55.576Z,79.46
2022-10-15T23:29:25.869Z,79.46
2022-10-15T23:31:54.802Z,79.41
2022-10-15T23:34:25.897Z,79.35
2022-10-15T23:36:54.253Z,79.27
2022-10-15T23:39:25.682Z,79.21
2022-10-15T23:41:54.818Z,79.19
2022-10-15T23:44:25.741Z,79.29
2022-10-15T23:46:54.191Z,79.35
2022-10-15T23:49:21.926Z,79.40
2022-10-15T23:51:49.743Z,79.49
2022-10-15T23:54:19.015Z,79.61
2022-10-15T23:56:49.069Z,79.70
2022-10-15T23:59:22.342Z,79.77
